sensor_id;sensor_type;location;lat;lon;timestamp;P1;durP1;ratioP1;P2;durP2;ratioP2
25948;SDS011;13961;51.178;4.448;2023-02-26T00:00:11;11.85;;;2.70;;
25948;SDS011;13961;51.178;4.448;2023-02-26T00:02:43;12.95;;;3.45;;
25948;SDS011;13961;51.178;4.448;2023-02-26T00:05:12;7.72;;;2.95;;
25948;SDS011;13961;51.178;4.448;2023-02-26T00:07:38;8.80;;;2.70;;
25948;SDS011;13961;51.178;4.448;2023-02-26T00:10:05;8.60;;;2.78;;
25948;SDS011;13961;51.178;4.448;2023-02-26T00:12:31;10.07;;;3.30;;
25948;SDS011;13961;51.178;4.448;2023-02-26T00:14:58;6.95;;;2.40;;
25948;SDS011;13961;51.178;4.448;2023-02-26T00:20:15;6.55;;;2.40;;
25948;SDS011;13961;51.178;4.448;2023-02-26T00:22:43;9.82;;;3.03;;
25948;SDS011;13961;51.178;4.448;2023-02-26T00:25:09;7.05;;;2.60;;
25948;SDS011;13961;51.178;4.448;2023-02-26T00:27:36;10.75;;;3.40;;
25948;SDS011;13961;51.178;4.448;2023-02-26T00:30:03;9.30;;;2.58;;
25948;SDS011;13961;51.178;4.448;2023-02-26T00:32:30;10.50;;;3.55;;
25948;SDS011;13961;51.178;4.448;2023-02-26T00:34:56;13.65;;;3.78;;
25948;SDS011;13961;51.178;4.448;2023-02-26T00:42:53;8.88;;;2.72;;
25948;SDS011;13961;51.178;4.448;2023-02-26T00:45:18;11.90;;;2.40;;
25948;SDS011;13961;51.178;4.448;2023-02-26T00:47:54;6.50;;;2.35;;
25948;SDS011;13961;51.178;4.448;2023-02-26T00:50:54;11.05;;;2.80;;
25948;SDS011;13961;51.178;4.448;2023-02-26T00:53:42;11.50;;;3.08;;
25948;SDS011;13961;51.178;4.448;2023-02-26T00:56:29;4.68;;;2.55;;
25948;SDS011;13961;51.178;4.448;2023-02-26T00:58:55;7.03;;;2.60;;
25948;SDS011;13961;51.178;4.448;2023-02-26T01:01:21;6.80;;;2.58;;
25948;SDS011;13961;51.178;4.448;2023-02-26T01:03:47;10.07;;;2.20;;
25948;SDS011;13961;51.178;4.448;2023-02-26T01:06:14;6.13;;;2.20;;
25948;SDS011;13961;51.178;4.448;2023-02-26T01:08:51;4.80;;;2.03;;
25948;SDS011;13961;51.178;4.448;2023-02-26T01:11:26;10.00;;;2.40;;
25948;SDS011;13961;51.178;4.448;2023-02-26T01:13:51;10.75;;;2.40;;
25948;SDS011;13961;51.178;4.448;2023-02-26T01:16:19;6.22;;;2.35;;
25948;SDS011;13961;51.178;4.448;2023-02-26T01:18:53;3.72;;;1.90;;
25948;SDS011;13961;51.178;4.448;2023-02-26T01:21:28;4.88;;;2.45;;
25948;SDS011;13961;51.178;4.448;2023-02-26T01:23:59;7.45;;;2.25;;
25948;SDS011;13961;51.178;4.448;2023-02-26T01:26:29;5.13;;;2.45;;
25948;SDS011;13961;51.178;4.448;2023-02-26T01:28:55;5.35;;;2.00;;
25948;SDS011;13961;51.178;4.448;2023-02-26T01:37:02;4.90;;;2.25;;
25948;SDS011;13961;51.178;4.448;2023-02-26T01:42:08;7.85;;;2.10;;
25948;SDS011;13961;51.178;4.448;2023-02-26T01:45:09;10.05;;;2.10;;
25948;SDS011;13961;51.178;4.448;2023-02-26T01:50:15;8.07;;;2.15;;
25948;SDS011;13961;51.178;4.448;2023-02-26T01:55:13;6.25;;;1.90;;
25948;SDS011;13961;51.178;4.448;2023-02-26T01:57:42;6.47;;;1.90;;
25948;SDS011;13961;51.178;4.448;2023-02-26T02:00:08;4.38;;;1.67;;
25948;SDS011;13961;51.178;4.448;2023-02-26T02:02:36;5.68;;;1.70;;
25948;SDS011;13961;51.178;4.448;2023-02-26T02:05:04;6.57;;;1.55;;
25948;SDS011;13961;51.178;4.448;2023-02-26T02:07:37;5.53;;;1.63;;
25948;SDS011;13961;51.178;4.448;2023-02-26T02:10:04;8.63;;;1.88;;
25948;SDS011;13961;51.178;4.448;2023-02-26T02:12:49;7.05;;;1.92;;
25948;SDS011;13961;51.178;4.448;2023-02-26T02:18:52;3.75;;;1.40;;
25948;SDS011;13961;51.178;4.448;2023-02-26T02:21:44;5.25;;;2.00;;
25948;SDS011;13961;51.178;4.448;2023-02-26T02:27:34;7.55;;;1.85;;
25948;SDS011;13961;51.178;4.448;2023-02-26T02:32:50;7.65;;;1.65;;
25948;SDS011;13961;51.178;4.448;2023-02-26T02:35:29;5.55;;;1.75;;
25948;SDS011;13961;51.178;4.448;2023-02-26T02:38:19;2.60;;;1.15;;
25948;SDS011;13961;51.178;4.448;2023-02-26T02:40:55;4.78;;;1.50;;
25948;SDS011;13961;51.178;4.448;2023-02-26T02:43:29;7.07;;;1.65;;
25948;SDS011;13961;51.178;4.448;2023-02-26T02:45:59;6.22;;;2.20;;
25948;SDS011;13961;51.178;4.448;2023-02-26T02:48:36;3.45;;;1.48;;
25948;SDS011;13961;51.178;4.448;2023-02-26T02:54:14;5.25;;;1.33;;
25948;SDS011;13961;51.178;4.448;2023-02-26T02:56:28;3.90;;;1.63;;
25948;SDS011;13961;51.178;4.448;2023-02-26T02:59:23;5.82;;;1.85;;
25948;SDS011;13961;51.178;4.448;2023-02-26T03:01:51;7.90;;;1.65;;
25948;SDS011;13961;51.178;4.448;2023-02-26T03:04:25;4.70;;;1.75;;
25948;SDS011;13961;51.178;4.448;2023-02-26T03:06:51;6.97;;;1.60;;
25948;SDS011;13961;51.178;4.448;2023-02-26T03:09:17;7.85;;;1.58;;
25948;SDS011;13961;51.178;4.448;2023-02-26T03:11:42;5.40;;;1.58;;
25948;SDS011;13961;51.178;4.448;2023-02-26T03:14:08;7.72;;;2.22;;
25948;SDS011;13961;51.178;4.448;2023-02-26T03:19:35;11.80;;;1.70;;
25948;SDS011;13961;51.178;4.448;2023-02-26T03:25:58;2.95;;;1.15;;
25948;SDS011;13961;51.178;4.448;2023-02-26T03:28:40;4.72;;;1.38;;
25948;SDS011;13961;51.178;4.448;2023-02-26T03:31:21;4.43;;;1.33;;
25948;SDS011;13961;51.178;4.448;2023-02-26T03:34:12;6.80;;;1.70;;
25948;SDS011;13961;51.178;4.448;2023-02-26T03:36:45;8.35;;;1.42;;
25948;SDS011;13961;51.178;4.448;2023-02-26T03:39:19;3.58;;;1.13;;
25948;SDS011;13961;51.178;4.448;2023-02-26T03:42:00;4.07;;;1.48;;
25948;SDS011;13961;51.178;4.448;2023-02-26T03:44:36;4.93;;;1.42;;
25948;SDS011;13961;51.178;4.448;2023-02-26T03:47:11;8.70;;;1.42;;
25948;SDS011;13961;51.178;4.448;2023-02-26T03:52:25;3.15;;;1.17;;
25948;SDS011;13961;51.178;4.448;2023-02-26T03:55:10;1.77;;;0.70;;
25948;SDS011;13961;51.178;4.448;2023-02-26T03:57:46;4.13;;;0.88;;
25948;SDS011;13961;51.178;4.448;2023-02-26T04:00:13;5.05;;;0.82;;
25948;SDS011;13961;51.178;4.448;2023-02-26T04:05:41;1.00;;;0.68;;
25948;SDS011;13961;51.178;4.448;2023-02-26T04:08:11;5.97;;;1.05;;
25948;SDS011;13961;51.178;4.448;2023-02-26T04:10:42;8.80;;;1.10;;
25948;SDS011;13961;51.178;4.448;2023-02-26T04:13:12;4.13;;;0.88;;
25948;SDS011;13961;51.178;4.448;2023-02-26T04:15:38;7.78;;;0.90;;
25948;SDS011;13961;51.178;4.448;2023-02-26T04:18:03;8.80;;;1.20;;
25948;SDS011;13961;51.178;4.448;2023-02-26T04:20:29;1.95;;;0.82;;
25948;SDS011;13961;51.178;4.448;2023-02-26T04:22:55;2.22;;;0.90;;
25948;SDS011;13961;51.178;4.448;2023-02-26T04:25:21;2.95;;;0.95;;
25948;SDS011;13961;51.178;4.448;2023-02-26T04:27:47;3.17;;;0.93;;
25948;SDS011;13961;51.178;4.448;2023-02-26T04:30:13;5.95;;;1.00;;
25948;SDS011;13961;51.178;4.448;2023-02-26T04:32:40;3.08;;;0.77;;
25948;SDS011;13961;51.178;4.448;2023-02-26T04:35:05;2.72;;;0.85;;
25948;SDS011;13961;51.178;4.448;2023-02-26T04:37:32;3.60;;;1.10;;
25948;SDS011;13961;51.178;4.448;2023-02-26T04:39:58;6.15;;;0.90;;
25948;SDS011;13961;51.178;4.448;2023-02-26T04:42:24;2.30;;;0.82;;
25948;SDS011;13961;51.178;4.448;2023-02-26T04:44:49;0.82;;;0.60;;
25948;SDS011;13961;51.178;4.448;2023-02-26T04:47:15;5.40;;;0.80;;
25948;SDS011;13961;51.178;4.448;2023-02-26T04:49:41;5.68;;;1.10;;
25948;SDS011;13961;51.178;4.448;2023-02-26T04:52:07;3.90;;;0.95;;
25948;SDS011;13961;51.178;4.448;2023-02-26T04:54:33;2.03;;;1.00;;
25948;SDS011;13961;51.178;4.448;2023-02-26T04:56:59;4.20;;;1.15;;
25948;SDS011;13961;51.178;4.448;2023-02-26T04:59:24;2.50;;;0.98;;
25948;SDS011;13961;51.178;4.448;2023-02-26T05:01:51;5.80;;;0.82;;
25948;SDS011;13961;51.178;4.448;2023-02-26T05:04:17;1.00;;;0.60;;
25948;SDS011;13961;51.178;4.448;2023-02-26T05:06:43;4.43;;;0.70;;
25948;SDS011;13961;51.178;4.448;2023-02-26T05:09:09;3.88;;;1.25;;
25948;SDS011;13961;51.178;4.448;2023-02-26T05:11:35;5.82;;;1.25;;
25948;SDS011;13961;51.178;4.448;2023-02-26T05:14:01;5.55;;;0.80;;
25948;SDS011;13961;51.178;4.448;2023-02-26T05:16:26;3.38;;;0.52;;
25948;SDS011;13961;51.178;4.448;2023-02-26T05:18:52;2.70;;;1.00;;
25948;SDS011;13961;51.178;4.448;2023-02-26T05:21:18;2.60;;;0.50;;
25948;SDS011;13961;51.178;4.448;2023-02-26T05:23:43;1.85;;;0.63;;
25948;SDS011;13961;51.178;4.448;2023-02-26T05:26:09;1.65;;;0.50;;
25948;SDS011;13961;51.178;4.448;2023-02-26T05:28:34;4.22;;;0.73;;
25948;SDS011;13961;51.178;4.448;2023-02-26T05:31:00;3.20;;;0.47;;
25948;SDS011;13961;51.178;4.448;2023-02-26T05:33:27;10.23;;;1.33;;
25948;SDS011;13961;51.178;4.448;2023-02-26T05:35:52;3.72;;;0.98;;
25948;SDS011;13961;51.178;4.448;2023-02-26T05:38:18;1.67;;;0.90;;
25948;SDS011;13961;51.178;4.448;2023-02-26T05:40:44;3.42;;;0.85;;
25948;SDS011;13961;51.178;4.448;2023-02-26T05:43:10;4.50;;;0.90;;
25948;SDS011;13961;51.178;4.448;2023-02-26T05:45:36;5.80;;;0.93;;
25948;SDS011;13961;51.178;4.448;2023-02-26T05:48:01;3.08;;;0.80;;
25948;SDS011;13961;51.178;4.448;2023-02-26T05:50:27;3.78;;;0.65;;
25948;SDS011;13961;51.178;4.448;2023-02-26T05:52:54;1.42;;;0.70;;
25948;SDS011;13961;51.178;4.448;2023-02-26T05:55:20;4.80;;;0.90;;
25948;SDS011;13961;51.178;4.448;2023-02-26T05:57:46;2.60;;;0.68;;
25948;SDS011;13961;51.178;4.448;2023-02-26T06:00:12;4.95;;;0.88;;
25948;SDS011;13961;51.178;4.448;2023-02-26T06:02:38;6.13;;;0.88;;
25948;SDS011;13961;51.178;4.448;2023-02-26T06:05:04;7.15;;;0.70;;
25948;SDS011;13961;51.178;4.448;2023-02-26T06:07:30;1.27;;;0.60;;
25948;SDS011;13961;51.178;4.448;2023-02-26T06:09:56;5.43;;;0.82;;
25948;SDS011;13961;51.178;4.448;2023-02-26T06:12:21;3.28;;;0.60;;
25948;SDS011;13961;51.178;4.448;2023-02-26T06:14:47;4.38;;;1.13;;
25948;SDS011;13961;51.178;4.448;2023-02-26T06:17:13;1.40;;;0.95;;
25948;SDS011;13961;51.178;4.448;2023-02-26T06:19:38;2.03;;;0.75;;
25948;SDS011;13961;51.178;4.448;2023-02-26T06:22:04;3.47;;;1.20;;
25948;SDS011;13961;51.178;4.448;2023-02-26T06:24:30;5.10;;;0.68;;
25948;SDS011;13961;51.178;4.448;2023-02-26T06:26:55;3.50;;;0.70;;
25948;SDS011;13961;51.178;4.448;2023-02-26T06:29:21;3.38;;;0.82;;
25948;SDS011;13961;51.178;4.448;2023-02-26T06:31:47;3.53;;;0.80;;
25948;SDS011;13961;51.178;4.448;2023-02-26T06:34:13;4.05;;;1.08;;
25948;SDS011;13961;51.178;4.448;2023-02-26T06:36:39;3.35;;;1.00;;
25948;SDS011;13961;51.178;4.448;2023-02-26T06:39:05;4.95;;;0.45;;
25948;SDS011;13961;51.178;4.448;2023-02-26T06:41:32;5.38;;;0.80;;
25948;SDS011;13961;51.178;4.448;2023-02-26T06:43:58;4.43;;;0.60;;
25948;SDS011;13961;51.178;4.448;2023-02-26T06:46:23;4.00;;;0.60;;
25948;SDS011;13961;51.178;4.448;2023-02-26T06:48:49;1.67;;;0.45;;
25948;SDS011;13961;51.178;4.448;2023-02-26T06:51:15;3.67;;;0.82;;
25948;SDS011;13961;51.178;4.448;2023-02-26T06:53:40;3.30;;;0.90;;
25948;SDS011;13961;51.178;4.448;2023-02-26T06:56:06;2.42;;;0.63;;
25948;SDS011;13961;51.178;4.448;2023-02-26T06:58:32;6.10;;;0.52;;
25948;SDS011;13961;51.178;4.448;2023-02-26T07:00:58;5.68;;;1.25;;
25948;SDS011;13961;51.178;4.448;2023-02-26T07:03:25;2.10;;;0.70;;
25948;SDS011;13961;51.178;4.448;2023-02-26T07:05:51;1.35;;;0.98;;
25948;SDS011;13961;51.178;4.448;2023-02-26T07:08:17;1.45;;;0.70;;
25948;SDS011;13961;51.178;4.448;2023-02-26T07:10:42;0.70;;;0.47;;
25948;SDS011;13961;51.178;4.448;2023-02-26T07:13:11;3.25;;;0.90;;
25948;SDS011;13961;51.178;4.448;2023-02-26T07:15:37;3.95;;;0.90;;
25948;SDS011;13961;51.178;4.448;2023-02-26T07:18:02;2.92;;;0.80;;
25948;SDS011;13961;51.178;4.448;2023-02-26T07:20:28;2.90;;;0.73;;
25948;SDS011;13961;51.178;4.448;2023-02-26T07:22:54;2.80;;;0.45;;
25948;SDS011;13961;51.178;4.448;2023-02-26T07:25:20;4.82;;;1.00;;
25948;SDS011;13961;51.178;4.448;2023-02-26T07:27:46;2.67;;;0.50;;
25948;SDS011;13961;51.178;4.448;2023-02-26T07:30:12;8.75;;;0.80;;
25948;SDS011;13961;51.178;4.448;2023-02-26T07:32:38;6.95;;;0.57;;
25948;SDS011;13961;51.178;4.448;2023-02-26T07:35:04;5.20;;;1.00;;
25948;SDS011;13961;51.178;4.448;2023-02-26T07:37:30;5.63;;;0.75;;
25948;SDS011;13961;51.178;4.448;2023-02-26T07:39:56;1.73;;;0.57;;
25948;SDS011;13961;51.178;4.448;2023-02-26T07:42:22;6.28;;;0.82;;
25948;SDS011;13961;51.178;4.448;2023-02-26T07:44:48;6.80;;;0.52;;
25948;SDS011;13961;51.178;4.448;2023-02-26T07:47:13;1.35;;;0.65;;
25948;SDS011;13961;51.178;4.448;2023-02-26T07:49:39;1.63;;;0.70;;
25948;SDS011;13961;51.178;4.448;2023-02-26T07:52:05;3.67;;;0.80;;
25948;SDS011;13961;51.178;4.448;2023-02-26T07:54:34;5.55;;;1.42;;
25948;SDS011;13961;51.178;4.448;2023-02-26T07:57:00;3.95;;;1.00;;
25948;SDS011;13961;51.178;4.448;2023-02-26T07:59:26;2.70;;;0.90;;
25948;SDS011;13961;51.178;4.448;2023-02-26T08:01:53;1.88;;;0.68;;
25948;SDS011;13961;51.178;4.448;2023-02-26T08:04:19;3.38;;;0.80;;
25948;SDS011;13961;51.178;4.448;2023-02-26T08:06:45;1.88;;;0.60;;
25948;SDS011;13961;51.178;4.448;2023-02-26T08:09:11;4.07;;;0.55;;
25948;SDS011;13961;51.178;4.448;2023-02-26T08:11:37;2.88;;;0.60;;
25948;SDS011;13961;51.178;4.448;2023-02-26T08:14:06;6.70;;;0.73;;
25948;SDS011;13961;51.178;4.448;2023-02-26T08:16:32;8.27;;;0.93;;
25948;SDS011;13961;51.178;4.448;2023-02-26T08:18:58;2.15;;;0.50;;
25948;SDS011;13961;51.178;4.448;2023-02-26T08:21:24;3.42;;;0.70;;
25948;SDS011;13961;51.178;4.448;2023-02-26T08:23:51;3.45;;;0.60;;
25948;SDS011;13961;51.178;4.448;2023-02-26T08:26:19;2.15;;;0.68;;
25948;SDS011;13961;51.178;4.448;2023-02-26T08:28:44;4.03;;;0.57;;
25948;SDS011;13961;51.178;4.448;2023-02-26T08:31:12;3.08;;;0.50;;
25948;SDS011;13961;51.178;4.448;2023-02-26T08:33:39;3.13;;;0.60;;
25948;SDS011;13961;51.178;4.448;2023-02-26T08:38:34;2.42;;;0.60;;
25948;SDS011;13961;51.178;4.448;2023-02-26T08:41:01;1.90;;;0.50;;
25948;SDS011;13961;51.178;4.448;2023-02-26T08:43:26;4.63;;;0.63;;
25948;SDS011;13961;51.178;4.448;2023-02-26T08:45:54;2.03;;;0.57;;
25948;SDS011;13961;51.178;4.448;2023-02-26T08:48:23;1.25;;;0.55;;
25948;SDS011;13961;51.178;4.448;2023-02-26T08:50:50;1.60;;;0.50;;
25948;SDS011;13961;51.178;4.448;2023-02-26T08:53:15;2.60;;;0.75;;
25948;SDS011;13961;51.178;4.448;2023-02-26T08:55:48;2.92;;;0.52;;
25948;SDS011;13961;51.178;4.448;2023-02-26T08:58:15;3.88;;;0.70;;
25948;SDS011;13961;51.178;4.448;2023-02-26T09:00:44;1.58;;;0.55;;
25948;SDS011;13961;51.178;4.448;2023-02-26T09:03:11;3.53;;;0.82;;
25948;SDS011;13961;51.178;4.448;2023-02-26T09:05:37;4.95;;;0.60;;
25948;SDS011;13961;51.178;4.448;2023-02-26T09:08:07;2.88;;;0.45;;
25948;SDS011;13961;51.178;4.448;2023-02-26T09:10:33;2.63;;;0.55;;
25948;SDS011;13961;51.178;4.448;2023-02-26T09:12:59;5.35;;;0.63;;
25948;SDS011;13961;51.178;4.448;2023-02-26T09:15:25;2.85;;;0.63;;
25948;SDS011;13961;51.178;4.448;2023-02-26T09:17:51;2.70;;;0.60;;
25948;SDS011;13961;51.178;4.448;2023-02-26T09:20:16;1.35;;;0.60;;
25948;SDS011;13961;51.178;4.448;2023-02-26T09:22:42;3.15;;;0.80;;
25948;SDS011;13961;51.178;4.448;2023-02-26T09:25:08;3.22;;;0.38;;
25948;SDS011;13961;51.178;4.448;2023-02-26T09:27:34;3.45;;;0.50;;
25948;SDS011;13961;51.178;4.448;2023-02-26T09:30:01;1.35;;;0.52;;
25948;SDS011;13961;51.178;4.448;2023-02-26T09:32:28;2.78;;;0.32;;
25948;SDS011;13961;51.178;4.448;2023-02-26T09:34:53;2.22;;;0.70;;
25948;SDS011;13961;51.178;4.448;2023-02-26T09:37:19;5.88;;;0.50;;
25948;SDS011;13961;51.178;4.448;2023-02-26T09:39:45;2.42;;;0.68;;
25948;SDS011;13961;51.178;4.448;2023-02-26T09:45:05;4.32;;;0.70;;
25948;SDS011;13961;51.178;4.448;2023-02-26T09:47:47;1.83;;;0.70;;
25948;SDS011;13961;51.178;4.448;2023-02-26T09:53:06;1.88;;;0.55;;
25948;SDS011;13961;51.178;4.448;2023-02-26T09:55:49;3.30;;;0.90;;
25948;SDS011;13961;51.178;4.448;2023-02-26T09:58:39;6.45;;;0.75;;
25948;SDS011;13961;51.178;4.448;2023-02-26T10:12:27;3.03;;;0.63;;
25948;SDS011;13961;51.178;4.448;2023-02-26T10:15:38;1.67;;;0.70;;
25948;SDS011;13961;51.178;4.448;2023-02-26T10:20:15;2.33;;;1.10;;
25948;SDS011;13961;51.178;4.448;2023-02-26T10:25:16;3.03;;;0.73;;
25948;SDS011;13961;51.178;4.448;2023-02-26T10:28:07;0.95;;;0.60;;
25948;SDS011;13961;51.178;4.448;2023-02-26T10:30:51;1.48;;;0.40;;
25948;SDS011;13961;51.178;4.448;2023-02-26T10:36:23;1.70;;;0.55;;
25948;SDS011;13961;51.178;4.448;2023-02-26T10:39:01;2.90;;;0.80;;
25948;SDS011;13961;51.178;4.448;2023-02-26T10:41:38;4.45;;;0.75;;
25948;SDS011;13961;51.178;4.448;2023-02-26T10:51:46;3.28;;;0.40;;
25948;SDS011;13961;51.178;4.448;2023-02-26T10:56:40;2.75;;;0.50;;
25948;SDS011;13961;51.178;4.448;2023-02-26T10:59:06;4.47;;;0.43;;
25948;SDS011;13961;51.178;4.448;2023-02-26T11:01:32;1.38;;;0.40;;
25948;SDS011;13961;51.178;4.448;2023-02-26T11:03:59;7.10;;;0.95;;
25948;SDS011;13961;51.178;4.448;2023-02-26T11:06:36;3.50;;;0.55;;
25948;SDS011;13961;51.178;4.448;2023-02-26T11:09:16;3.85;;;0.52;;
25948;SDS011;13961;51.178;4.448;2023-02-26T11:12:11;2.40;;;0.40;;
25948;SDS011;13961;51.178;4.448;2023-02-26T11:14:38;0.82;;;0.30;;
25948;SDS011;13961;51.178;4.448;2023-02-26T11:17:27;9.05;;;1.10;;
25948;SDS011;13961;51.178;4.448;2023-02-26T11:19:56;1.75;;;0.52;;
25948;SDS011;13961;51.178;4.448;2023-02-26T11:22:31;3.60;;;0.55;;
25948;SDS011;13961;51.178;4.448;2023-02-26T11:27:30;1.42;;;0.50;;
25948;SDS011;13961;51.178;4.448;2023-02-26T11:30:04;1.00;;;0.50;;
25948;SDS011;13961;51.178;4.448;2023-02-26T11:32:41;0.98;;;0.55;;
25948;SDS011;13961;51.178;4.448;2023-02-26T11:35:12;2.65;;;0.50;;
25948;SDS011;13961;51.178;4.448;2023-02-26T11:37:45;1.33;;;0.50;;
25948;SDS011;13961;51.178;4.448;2023-02-26T11:40:25;4.50;;;0.60;;
25948;SDS011;13961;51.178;4.448;2023-02-26T11:43:02;1.52;;;0.50;;
25948;SDS011;13961;51.178;4.448;2023-02-26T11:45:30;4.15;;;0.63;;
25948;SDS011;13961;51.178;4.448;2023-02-26T11:48:01;1.00;;;0.60;;
25948;SDS011;13961;51.178;4.448;2023-02-26T11:50:31;2.40;;;0.60;;
25948;SDS011;13961;51.178;4.448;2023-02-26T11:53:31;2.30;;;0.88;;
25948;SDS011;13961;51.178;4.448;2023-02-26T11:56:09;1.08;;;0.43;;
25948;SDS011;13961;51.178;4.448;2023-02-26T11:58:38;3.47;;;0.55;;
25948;SDS011;13961;51.178;4.448;2023-02-26T12:01:08;1.70;;;0.38;;
25948;SDS011;13961;51.178;4.448;2023-02-26T12:03:37;3.13;;;0.60;;
25948;SDS011;13961;51.178;4.448;2023-02-26T12:06:05;1.10;;;0.40;;
25948;SDS011;13961;51.178;4.448;2023-02-26T12:08:35;1.52;;;0.50;;
25948;SDS011;13961;51.178;4.448;2023-02-26T12:25:41;2.72;;;0.32;;
25948;SDS011;13961;51.178;4.448;2023-02-26T12:28:21;1.15;;;0.40;;
25948;SDS011;13961;51.178;4.448;2023-02-26T12:41:56;0.52;;;0.47;;
25948;SDS011;13961;51.178;4.448;2023-02-26T12:50:32;2.75;;;0.63;;
25948;SDS011;13961;51.178;4.448;2023-02-26T12:53:32;1.17;;;0.50;;
25948;SDS011;13961;51.178;4.448;2023-02-26T12:56:23;2.30;;;0.57;;
25948;SDS011;13961;51.178;4.448;2023-02-26T13:13:07;2.38;;;0.45;;
25948;SDS011;13961;51.178;4.448;2023-02-26T13:21:13;2.90;;;0.52;;
25948;SDS011;13961;51.178;4.448;2023-02-26T13:23:52;3.63;;;0.77;;
25948;SDS011;13961;51.178;4.448;2023-02-26T13:26:26;0.65;;;0.40;;
25948;SDS011;13961;51.178;4.448;2023-02-26T13:31:32;5.15;;;0.40;;
25948;SDS011;13961;51.178;4.448;2023-02-26T13:34:06;1.63;;;0.50;;
25948;SDS011;13961;51.178;4.448;2023-02-26T13:36:39;1.52;;;0.50;;
25948;SDS011;13961;51.178;4.448;2023-02-26T13:39:09;1.35;;;0.45;;
25948;SDS011;13961;51.178;4.448;2023-02-26T13:44:54;0.80;;;0.40;;
25948;SDS011;13961;51.178;4.448;2023-02-26T13:47:31;1.05;;;0.30;;
25948;SDS011;13961;51.178;4.448;2023-02-26T13:50:25;2.25;;;0.63;;
25948;SDS011;13961;51.178;4.448;2023-02-26T13:52:53;2.92;;;0.60;;
25948;SDS011;13961;51.178;4.448;2023-02-26T13:55:35;1.40;;;0.60;;
25948;SDS011;13961;51.178;4.448;2023-02-26T13:58:15;0.93;;;0.63;;
25948;SDS011;13961;51.178;4.448;2023-02-26T14:00:52;5.70;;;0.93;;
25948;SDS011;13961;51.178;4.448;2023-02-26T14:05:54;2.53;;;1.27;;
25948;SDS011;13961;51.178;4.448;2023-02-26T14:11:05;1.70;;;0.45;;
25948;SDS011;13961;51.178;4.448;2023-02-26T14:14:13;1.17;;;0.38;;
25948;SDS011;13961;51.178;4.448;2023-02-26T14:16:41;1.23;;;0.63;;
25948;SDS011;13961;51.178;4.448;2023-02-26T14:21:53;4.40;;;1.10;;
25948;SDS011;13961;51.178;4.448;2023-02-26T14:24:38;2.05;;;0.57;;
25948;SDS011;13961;51.178;4.448;2023-02-26T14:29:39;1.83;;;0.70;;
25948;SDS011;13961;51.178;4.448;2023-02-26T14:34:51;2.50;;;0.70;;
25948;SDS011;13961;51.178;4.448;2023-02-26T14:37:21;1.00;;;0.50;;
25948;SDS011;13961;51.178;4.448;2023-02-26T14:42:31;1.75;;;0.60;;
25948;SDS011;13961;51.178;4.448;2023-02-26T14:45:15;1.67;;;0.75;;
25948;SDS011;13961;51.178;4.448;2023-02-26T14:47:56;2.38;;;0.80;;
25948;SDS011;13961;51.178;4.448;2023-02-26T14:50:25;2.00;;;0.52;;
25948;SDS011;13961;51.178;4.448;2023-02-26T14:53:12;3.83;;;0.80;;
25948;SDS011;13961;51.178;4.448;2023-02-26T14:55:47;3.92;;;0.80;;
25948;SDS011;13961;51.178;4.448;2023-02-26T15:18:10;1.48;;;0.40;;
25948;SDS011;13961;51.178;4.448;2023-02-26T15:20:46;0.70;;;0.50;;
25948;SDS011;13961;51.178;4.448;2023-02-26T15:23:26;1.60;;;0.57;;
25948;SDS011;13961;51.178;4.448;2023-02-26T15:25:55;4.13;;;0.98;;
25948;SDS011;13961;51.178;4.448;2023-02-26T15:28:25;0.98;;;0.57;;
25948;SDS011;13961;51.178;4.448;2023-02-26T15:30:58;0.80;;;0.70;;
25948;SDS011;13961;51.178;4.448;2023-02-26T15:33:25;1.27;;;0.50;;
25948;SDS011;13961;51.178;4.448;2023-02-26T15:35:53;3.20;;;0.73;;
25948;SDS011;13961;51.178;4.448;2023-02-26T15:40:52;0.40;;;0.40;;
25948;SDS011;13961;51.178;4.448;2023-02-26T15:43:26;1.55;;;0.90;;
25948;SDS011;13961;51.178;4.448;2023-02-26T15:45:54;1.10;;;0.70;;
25948;SDS011;13961;51.178;4.448;2023-02-26T15:48:27;0.90;;;0.50;;
25948;SDS011;13961;51.178;4.448;2023-02-26T15:50:59;0.93;;;0.40;;
25948;SDS011;13961;51.178;4.448;2023-02-26T15:53:35;3.13;;;0.60;;
25948;SDS011;13961;51.178;4.448;2023-02-26T15:56:14;1.83;;;0.60;;
25948;SDS011;13961;51.178;4.448;2023-02-26T15:58:59;3.00;;;0.43;;
25948;SDS011;13961;51.178;4.448;2023-02-26T16:01:27;0.77;;;0.60;;
25948;SDS011;13961;51.178;4.448;2023-02-26T16:04:01;0.40;;;0.40;;
25948;SDS011;13961;51.178;4.448;2023-02-26T16:06:36;1.98;;;0.50;;
25948;SDS011;13961;51.178;4.448;2023-02-26T16:09:05;1.38;;;0.40;;
25948;SDS011;13961;51.178;4.448;2023-02-26T16:11:34;2.00;;;0.43;;
25948;SDS011;13961;51.178;4.448;2023-02-26T16:14:05;1.30;;;0.50;;
25948;SDS011;13961;51.178;4.448;2023-02-26T16:16:47;1.42;;;0.40;;
25948;SDS011;13961;51.178;4.448;2023-02-26T16:19:18;1.75;;;0.30;;
25948;SDS011;13961;51.178;4.448;2023-02-26T16:21:51;0.70;;;0.60;;
25948;SDS011;13961;51.178;4.448;2023-02-26T16:24:20;0.80;;;0.50;;
25948;SDS011;13961;51.178;4.448;2023-02-26T16:26:58;1.27;;;0.55;;
25948;SDS011;13961;51.178;4.448;2023-02-26T16:29:31;0.75;;;0.50;;
25948;SDS011;13961;51.178;4.448;2023-02-26T16:31:59;1.08;;;0.57;;
25948;SDS011;13961;51.178;4.448;2023-02-26T16:40:16;3.50;;;0.70;;
25948;SDS011;13961;51.178;4.448;2023-02-26T16:47:59;4.10;;;0.73;;
25948;SDS011;13961;51.178;4.448;2023-02-26T16:50:32;1.60;;;1.00;;
25948;SDS011;13961;51.178;4.448;2023-02-26T16:55:38;2.53;;;0.75;;
25948;SDS011;13961;51.178;4.448;2023-02-26T16:58:05;1.50;;;0.80;;
25948;SDS011;13961;51.178;4.448;2023-02-26T17:00:35;1.95;;;0.47;;
25948;SDS011;13961;51.178;4.448;2023-02-26T17:03:17;1.98;;;0.47;;
25948;SDS011;13961;51.178;4.448;2023-02-26T17:05:57;1.42;;;0.63;;
25948;SDS011;13961;51.178;4.448;2023-02-26T17:08:33;1.13;;;0.57;;
25948;SDS011;13961;51.178;4.448;2023-02-26T17:11:06;1.83;;;0.60;;
25948;SDS011;13961;51.178;4.448;2023-02-26T17:13:40;1.67;;;0.63;;
25948;SDS011;13961;51.178;4.448;2023-02-26T17:16:09;1.58;;;0.70;;
25948;SDS011;13961;51.178;4.448;2023-02-26T17:18:36;1.92;;;0.60;;
25948;SDS011;13961;51.178;4.448;2023-02-26T17:21:02;2.85;;;0.65;;
25948;SDS011;13961;51.178;4.448;2023-02-26T17:23:35;2.75;;;1.10;;
25948;SDS011;13961;51.178;4.448;2023-02-26T17:26:02;5.65;;;2.55;;
25948;SDS011;13961;51.178;4.448;2023-02-26T17:28:34;5.60;;;2.03;;
25948;SDS011;13961;51.178;4.448;2023-02-26T17:31:03;5.35;;;2.10;;
25948;SDS011;13961;51.178;4.448;2023-02-26T17:33:30;7.63;;;1.70;;
25948;SDS011;13961;51.178;4.448;2023-02-26T17:35:57;5.70;;;1.70;;
25948;SDS011;13961;51.178;4.448;2023-02-26T17:38:24;3.95;;;1.50;;
25948;SDS011;13961;51.178;4.448;2023-02-26T17:40:52;2.00;;;1.08;;
25948;SDS011;13961;51.178;4.448;2023-02-26T17:43:20;3.25;;;1.33;;
25948;SDS011;13961;51.178;4.448;2023-02-26T17:45:53;3.00;;;1.25;;
25948;SDS011;13961;51.178;4.448;2023-02-26T17:48:18;3.30;;;1.60;;
25948;SDS011;13961;51.178;4.448;2023-02-26T17:50:51;4.45;;;1.67;;
25948;SDS011;13961;51.178;4.448;2023-02-26T17:53:20;3.67;;;1.10;;
25948;SDS011;13961;51.178;4.448;2023-02-26T17:55:57;3.35;;;1.70;;
25948;SDS011;13961;51.178;4.448;2023-02-26T17:58:27;2.55;;;1.52;;
25948;SDS011;13961;51.178;4.448;2023-02-26T18:00:56;2.63;;;1.50;;
25948;SDS011;13961;51.178;4.448;2023-02-26T18:03:23;2.13;;;1.15;;
25948;SDS011;13961;51.178;4.448;2023-02-26T18:05:50;4.30;;;1.83;;
25948;SDS011;13961;51.178;4.448;2023-02-26T18:08:22;5.10;;;2.00;;
25948;SDS011;13961;51.178;4.448;2023-02-26T18:10:50;3.20;;;1.70;;
25948;SDS011;13961;51.178;4.448;2023-02-26T18:13:18;3.42;;;1.45;;
25948;SDS011;13961;51.178;4.448;2023-02-26T18:15:45;2.28;;;1.27;;
25948;SDS011;13961;51.178;4.448;2023-02-26T18:18:14;7.10;;;1.92;;
25948;SDS011;13961;51.178;4.448;2023-02-26T18:20:40;7.03;;;2.92;;
25948;SDS011;13961;51.178;4.448;2023-02-26T18:23:15;13.88;;;3.25;;